Time;durP1;ratioP1;P1;durP2;ratioP2;P2;SDS_P1;SDS_P2;PMS_P1;PMS_P2;Temp;Humidity;BMP_temperature;BMP_pressure;BME280_temperature;BME280_humidity;BME280_pressure;Samples;Min_cycle;Max_cycle;Signal;HPM_P1;HPM_P2
2023/06/17 00:01:47;;;;;;;820.78;737.22;;;;;;;;;;4988240;28;20061;-63
2023/06/17 00:04:14;;;;;;;806.40;725.03;;;;;;;;;;4984683;28;20491;-63
2023/06/17 00:06:40;;;;;;;831.20;743.90;;;;;;;;;;5000944;28;20050;-63
2023/06/17 00:09:07;;;;;;;807.08;725.90;;;;;;;;;;4975620;28;20084;-63
2023/06/17 00:11:34;;;;;;;807.67;725.65;;;;;;;;;;4987113;28;20054;-63
2023/06/17 00:14:01;;;;;;;810.35;727.75;;;;;;;;;;4982292;28;20059;-63
2023/06/17 00:16:27;;;;;;;802.30;720.63;;;;;;;;;;4985728;28;20046;-63
2023/06/17 00:18:55;;;;;;;811.42;728.65;;;;;;;;;;4986060;28;20092;-63
2023/06/17 00:21:22;;;;;;;804.38;722.15;;;;;;;;;;4965152;28;20083;-63
2023/06/17 00:23:48;;;;;;;801.47;718.75;;;;;;;;;;4983946;28;20049;-64
2023/06/17 00:26:15;;;;;;;801.05;718.75;;;;;;;;;;4972328;28;20049;-62
2023/06/17 00:28:42;;;;;;;800.08;717.17;;;;;;;;;;4984648;28;20039;-63
2023/06/17 00:31:09;;;;;;;800.03;718.05;;;;;;;;;;4983572;28;20058;-63
2023/06/17 00:33:36;;;;;;;788.03;706.42;;;;;;;;;;4981955;28;20073;-63
2023/06/17 00:36:03;;;;;;;788.85;707.60;;;;;;;;;;4981141;28;20070;-64
2023/06/17 00:38:29;;;;;;;788.60;706.47;;;;;;;;;;4969241;28;20404;-63
2023/06/17 00:40:56;;;;;;;785.75;703.97;;;;;;;;;;4971891;28;20067;-63
2023/06/17 00:43:23;;;;;;;777.22;696.47;;;;;;;;;;4974096;28;20054;-63
2023/06/17 00:45:50;;;;;;;787.47;703.13;;;;;;;;;;4966091;28;20086;-65
2023/06/17 00:48:16;;;;;;;777.08;697.28;;;;;;;;;;4997488;28;20488;-63
2023/06/17 00:50:46;;;;;;;781.15;700.28;;;;;;;;;;4986545;28;20070;-63
2023/06/17 00:53:12;;;;;;;772.60;692.45;;;;;;;;;;4980831;28;20043;-63
2023/06/17 00:55:39;;;;;;;761.70;681.85;;;;;;;;;;4987130;28;20117;-64
2023/06/17 00:58:07;;;;;;;763.17;682.17;;;;;;;;;;4966166;28;20046;-63
2023/06/17 01:00:33;;;;;;;763.33;683.75;;;;;;;;;;4981759;28;20038;-63
2023/06/17 01:03:01;;;;;;;754.90;675.92;;;;;;;;;;4985997;28;20054;-63
2023/06/17 01:05:28;;;;;;;759.25;681.15;;;;;;;;;;4980444;28;20928;-63
2023/06/17 01:08:04;;;;;;;752.90;673.38;;;;;;;;;;4984127;28;20416;-62
2023/06/17 01:10:55;;;;;;;761.75;679.38;;;;;;;;;;4999218;28;20517;-63
2023/06/17 01:13:25;;;;;;;734.60;657.45;;;;;;;;;;4985366;28;20043;-62
2023/06/17 01:15:52;;;;;;;756.90;676.13;;;;;;;;;;4996387;28;20496;-63
2023/06/17 01:18:19;;;;;;;747.95;669.78;;;;;;;;;;4984768;28;20047;-63
2023/06/17 01:20:51;;;;;;;745.95;667.17;;;;;;;;;;4983514;28;20047;-62
2023/06/17 01:23:21;;;;;;;745.38;667.03;;;;;;;;;;4997208;28;20376;-63
2023/06/17 01:25:49;;;;;;;766.08;675.67;;;;;;;;;;4973084;28;20042;-62
2023/06/17 01:28:16;;;;;;;744.60;665.58;;;;;;;;;;4966164;28;20376;-62
2023/06/17 01:30:44;;;;;;;744.90;665.28;;;;;;;;;;4981331;28;20511;-64
2023/06/17 01:33:12;;;;;;;741.60;662.58;;;;;;;;;;4974211;28;20110;-63
2023/06/17 01:35:39;;;;;;;734.78;658.22;;;;;;;;;;4980633;28;20051;-62
2023/06/17 01:38:14;;;;;;;741.42;662.58;;;;;;;;;;4962678;28;20065;-63
2023/06/17 01:40:42;;;;;;;741.83;664.80;;;;;;;;;;4974690;28;20046;-63
2023/06/17 01:43:11;;;;;;;734.47;658.35;;;;;;;;;;4987580;28;20046;-63
2023/06/17 01:45:38;;;;;;;732.83;656.33;;;;;;;;;;4985121;28;20050;-63
2023/06/17 01:48:05;;;;;;;735.40;658.53;;;;;;;;;;4989117;28;20046;-63
2023/06/17 01:50:32;;;;;;;734.15;657.63;;;;;;;;;;4984776;28;20046;-63
2023/06/17 01:52:59;;;;;;;729.60;654.47;;;;;;;;;;5004920;28;20070;-64
2023/06/17 01:55:25;;;;;;;738.53;662.13;;;;;;;;;;4986652;28;20047;-63
2023/06/17 01:57:53;;;;;;;744.05;664.40;;;;;;;;;;4976521;28;20054;-65
2023/06/17 02:03:39;;;;;;;760.00;632.63;;;;;;;;;;3337728;26;20049;-71
2023/06/17 02:06:08;;;;;;;730.55;651.05;;;;;;;;;;5007156;28;20061;-65
2023/06/17 02:08:35;;;;;;;729.10;649.65;;;;;;;;;;4989401;28;20526;-64
2023/06/17 02:11:02;;;;;;;728.90;648.65;;;;;;;;;;5008360;28;20124;-67
2023/06/17 02:13:28;;;;;;;725.90;646.15;;;;;;;;;;5006702;28;20070;-64
2023/06/17 02:15:56;;;;;;;739.03;646.20;;;;;;;;;;4996479;28;20060;-64
2023/06/17 02:18:24;;;;;;;730.22;649.53;;;;;;;;;;5007301;28;20126;-66
2023/06/17 02:20:50;;;;;;;725.42;645.95;;;;;;;;;;4986861;28;20057;-66
2023/06/17 02:23:17;;;;;;;722.25;641.63;;;;;;;;;;5006199;28;20546;-65
2023/06/17 02:25:44;;;;;;;739.65;658.13;;;;;;;;;;4996182;28;20135;-65
2023/06/17 02:28:10;;;;;;;743.42;661.67;;;;;;;;;;4994411;28;20046;-65
2023/06/17 02:30:37;;;;;;;729.67;650.35;;;;;;;;;;5005045;28;20050;-67
2023/06/17 02:33:04;;;;;;;727.70;648.55;;;;;;;;;;4988963;28;20052;-64
2023/06/17 02:35:31;;;;;;;732.58;652.60;;;;;;;;;;5003839;28;20089;-64
2023/06/17 02:37:57;;;;;;;723.75;632.78;;;;;;;;;;5006312;28;20431;-64
2023/06/17 02:40:24;;;;;;;746.85;651.83;;;;;;;;;;5004736;28;20129;-64
2023/06/17 02:42:51;;;;;;;751.35;649.72;;;;;;;;;;5002849;28;20100;-64
2023/06/17 02:45:18;;;;;;;739.70;644.22;;;;;;;;;;5004797;28;20104;-64
2023/06/17 02:47:45;;;;;;;725.25;642.92;;;;;;;;;;4995721;28;20050;-65
2023/06/17 02:50:12;;;;;;;750.05;654.58;;;;;;;;;;5008455;28;20068;-65
2023/06/17 02:52:39;;;;;;;736.85;636.78;;;;;;;;;;4984601;28;20137;-64
2023/06/17 02:55:06;;;;;;;735.47;643.10;;;;;;;;;;5004408;28;20049;-65
2023/06/17 02:57:35;;;;;;;726.65;632.33;;;;;;;;;;5003868;28;20056;-67
2023/06/17 03:00:04;;;;;;;745.13;632.47;;;;;;;;;;4986376;28;20109;-64
2023/06/17 03:02:31;;;;;;;730.35;632.50;;;;;;;;;;5006425;28;20448;-66
2023/06/17 03:04:58;;;;;;;727.22;637.40;;;;;;;;;;5006354;28;20039;-65
2023/06/17 03:07:25;;;;;;;740.25;643.22;;;;;;;;;;4989762;28;20074;-66
2023/06/17 03:09:52;;;;;;;782.13;642.33;;;;;;;;;;4986580;28;20060;-68
2023/06/17 03:12:19;;;;;;;744.47;639.20;;;;;;;;;;4988708;28;20056;-65
2023/06/17 03:14:47;;;;;;;743.90;651.08;;;;;;;;;;4989068;28;20042;-65
2023/06/17 03:17:16;;;;;;;749.33;640.80;;;;;;;;;;5001643;28;20058;-64
2023/06/17 03:19:44;;;;;;;736.55;643.13;;;;;;;;;;4988340;28;20041;-66
2023/06/17 03:22:10;;;;;;;741.53;647.50;;;;;;;;;;5004870;28;20092;-65
2023/06/17 03:24:41;;;;;;;758.75;653.83;;;;;;;;;;4988056;28;20050;-64
2023/06/17 03:27:09;;;;;;;763.55;664.90;;;;;;;;;;4988996;28;20058;-66
2023/06/17 03:29:36;;;;;;;737.25;655.60;;;;;;;;;;4994911;28;20050;-64
2023/06/17 03:32:04;;;;;;;738.72;656.92;;;;;;;;;;4994815;28;20101;-64
2023/06/17 03:34:32;;;;;;;735.55;654.75;;;;;;;;;;5002285;28;20478;-64
2023/06/17 03:37:03;;;;;;;743.75;660.38;;;;;;;;;;4987208;28;20049;-64
2023/06/17 03:39:30;;;;;;;741.08;659.42;;;;;;;;;;4986326;28;20054;-64
2023/06/17 03:41:57;;;;;;;748.75;666.58;;;;;;;;;;4994734;28;20054;-66
2023/06/17 03:44:25;;;;;;;749.10;658.97;;;;;;;;;;4993477;28;20042;-66
2023/06/17 03:46:51;;;;;;;750.97;668.05;;;;;;;;;;5003423;28;20050;-64
2023/06/17 03:49:18;;;;;;;762.63;672.90;;;;;;;;;;4992796;28;20122;-65
2023/06/17 03:51:45;;;;;;;783.13;667.63;;;;;;;;;;5002218;28;20048;-65
2023/06/17 03:54:12;;;;;;;747.90;664.05;;;;;;;;;;4993368;28;20073;-64
2023/06/17 03:56:39;;;;;;;760.03;669.33;;;;;;;;;;5001265;28;20037;-65
2023/06/17 03:59:06;;;;;;;761.00;677.80;;;;;;;;;;5006657;28;20049;-63
2023/06/17 04:01:33;;;;;;;748.00;666.15;;;;;;;;;;5007056;28;20042;-67
2023/06/17 04:04:01;;;;;;;764.33;668.92;;;;;;;;;;5007687;28;20488;-65
2023/06/17 04:06:28;;;;;;;749.28;666.45;;;;;;;;;;5002703;28;20558;-64
2023/06/17 04:08:55;;;;;;;751.60;668.15;;;;;;;;;;4985661;28;20160;-64
2023/06/17 04:11:22;;;;;;;745.75;662.97;;;;;;;;;;5006843;28;20054;-65
2023/06/17 04:13:48;;;;;;;757.00;672.30;;;;;;;;;;5001522;28;20046;-66
2023/06/17 04:16:15;;;;;;;764.65;672.25;;;;;;;;;;5003026;28;20078;-65
2023/06/17 04:18:42;;;;;;;769.40;684.22;;;;;;;;;;4991869;28;20460;-65
2023/06/17 04:21:09;;;;;;;755.70;673.97;;;;;;;;;;5001715;28;20112;-66
2023/06/17 04:23:36;;;;;;;768.35;683.63;;;;;;;;;;5005088;28;20039;-64
2023/06/17 04:26:03;;;;;;;770.35;687.38;;;;;;;;;;4983154;28;20132;-65
2023/06/17 04:28:31;;;;;;;767.17;684.03;;;;;;;;;;4988185;28;20050;-66
2023/06/17 04:31:00;;;;;;;765.47;681.30;;;;;;;;;;5001281;28;20092;-64
2023/06/17 04:33:30;;;;;;;771.22;686.28;;;;;;;;;;4983849;28;20053;-64
2023/06/17 04:35:59;;;;;;;777.63;693.33;;;;;;;;;;5001429;28;20104;-66
2023/06/17 04:38:26;;;;;;;777.45;693.83;;;;;;;;;;4984273;28;20057;-64
2023/06/17 04:40:53;;;;;;;775.75;692.47;;;;;;;;;;5003337;28;20440;-64
2023/06/17 04:43:22;;;;;;;817.28;706.08;;;;;;;;;;5002376;28;20336;-64
2023/06/17 04:45:51;;;;;;;784.90;698.55;;;;;;;;;;5005118;28;20056;-65
2023/06/17 04:48:19;;;;;;;778.75;694.90;;;;;;;;;;4994500;28;20045;-64
2023/06/17 04:50:47;;;;;;;785.08;699.28;;;;;;;;;;4986112;28;20492;-64
2023/06/17 04:53:14;;;;;;;798.05;713.67;;;;;;;;;;4998688;28;20054;-64
2023/06/17 04:55:41;;;;;;;798.83;714.58;;;;;;;;;;5006708;28;20046;-64
2023/06/17 04:58:09;;;;;;;805.58;718.88;;;;;;;;;;4984272;28;20065;-74
2023/06/17 05:00:40;;;;;;;812.13;725.70;;;;;;;;;;4989560;28;20436;-68
2023/06/17 05:03:09;;;;;;;801.20;717.40;;;;;;;;;;5005791;28;20046;-64
2023/06/17 05:05:37;;;;;;;796.33;713.25;;;;;;;;;;4993119;28;20058;-64
2023/06/17 05:08:04;;;;;;;797.47;712.70;;;;;;;;;;5005596;28;20045;-65
2023/06/17 05:10:30;;;;;;;799.47;715.90;;;;;;;;;;4975915;28;20542;-65
2023/06/17 05:12:57;;;;;;;811.15;721.80;;;;;;;;;;5000898;28;20495;-66
2023/06/17 05:15:27;;;;;;;815.30;730.53;;;;;;;;;;5000867;28;20052;-64
2023/06/17 05:17:53;;;;;;;815.90;730.47;;;;;;;;;;4986210;28;20559;-69
2023/06/17 05:20:20;;;;;;;816.47;731.20;;;;;;;;;;5002536;28;20389;-65
2023/06/17 05:22:48;;;;;;;820.08;733.13;;;;;;;;;;5003762;28;20043;-65
2023/06/17 05:25:15;;;;;;;823.75;737.13;;;;;;;;;;5001144;28;20053;-64
2023/06/17 05:27:42;;;;;;;820.95;735.47;;;;;;;;;;5000502;28;20062;-66
2023/06/17 05:30:11;;;;;;;813.05;727.10;;;;;;;;;;5002789;28;20050;-65
2023/06/17 05:32:39;;;;;;;812.55;727.33;;;;;;;;;;4993133;28;20049;-69
2023/06/17 05:35:06;;;;;;;824.13;739.53;;;;;;;;;;4998221;28;20046;-65
2023/06/17 05:37:33;;;;;;;824.22;739.08;;;;;;;;;;4970720;28;20077;-64
2023/06/17 05:40:02;;;;;;;821.85;735.72;;;;;;;;;;5000057;28;20771;-64
2023/06/17 05:42:30;;;;;;;818.58;734.53;;;;;;;;;;4999789;28;20054;-68
2023/06/17 05:44:56;;;;;;;826.63;741.78;;;;;;;;;;4988641;28;20439;-64
2023/06/17 05:47:23;;;;;;;840.30;752.47;;;;;;;;;;5004175;28;20046;-68
2023/06/17 05:49:50;;;;;;;841.28;755.53;;;;;;;;;;5000603;28;20134;-65
2023/06/17 05:52:17;;;;;;;846.88;760.15;;;;;;;;;;5004261;28;20133;-66
2023/06/17 05:54:44;;;;;;;859.85;770.90;;;;;;;;;;4985273;28;20069;-66
2023/06/17 05:57:11;;;;;;;858.53;772.35;;;;;;;;;;5001005;28;20492;-65
2023/06/17 05:59:37;;;;;;;859.65;773.83;;;;;;;;;;4991793;28;20464;-65
2023/06/17 06:02:04;;;;;;;871.00;783.60;;;;;;;;;;5004574;28;20093;-65
2023/06/17 06:04:31;;;;;;;869.53;782.33;;;;;;;;;;4969858;28;20451;-64
2023/06/17 06:06:58;;;;;;;884.20;793.25;;;;;;;;;;4972819;28;20084;-64
2023/06/17 06:09:25;;;;;;;884.58;793.28;;;;;;;;;;4978930;28;20047;-64
2023/06/17 06:11:52;;;;;;;872.83;783.72;;;;;;;;;;4984566;28;20085;-67
2023/06/17 06:14:19;;;;;;;890.88;795.90;;;;;;;;;;4983597;28;20042;-65
2023/06/17 06:16:47;;;;;;;893.38;804.40;;;;;;;;;;4972063;28;20054;-64
2023/06/17 06:19:14;;;;;;;906.55;816.85;;;;;;;;;;4986486;28;20082;-63
2023/06/17 06:21:42;;;;;;;907.15;817.55;;;;;;;;;;4963019;28;20050;-67
2023/06/17 06:24:08;;;;;;;900.13;811.13;;;;;;;;;;4965616;28;20050;-69
2023/06/17 06:26:37;;;;;;;908.55;819.92;;;;;;;;;;4982856;28;20050;-64
2023/06/17 06:29:07;;;;;;;935.17;845.83;;;;;;;;;;4990489;28;20105;-66
2023/06/17 06:31:34;;;;;;;943.15;853.47;;;;;;;;;;4968968;28;20077;-68
2023/06/17 06:34:00;;;;;;;955.83;862.53;;;;;;;;;;4983924;28;20157;-64
2023/06/17 06:36:27;;;;;;;962.25;869.83;;;;;;;;;;4985060;28;20412;-64
2023/06/17 06:38:54;;;;;;;968.53;877.60;;;;;;;;;;4984101;28;20077;-65
2023/06/17 06:41:21;;;;;;;976.53;882.67;;;;;;;;;;4968266;28;20444;-64
2023/06/17 06:44:00;;;;;;;980.50;887.38;;;;;;;;;;4973084;28;20047;-65
2023/06/17 06:46:31;;;;;;;990.65;897.75;;;;;;;;;;4988941;28;20055;-66
2023/06/17 06:48:58;;;;;;;995.00;898.95;;;;;;;;;;4977273;28;20069;-64
2023/06/17 06:51:26;;;;;;;987.63;894.35;;;;;;;;;;4966899;28;20509;-64
2023/06/17 06:53:53;;;;;;;990.28;897.95;;;;;;;;;;4984185;28;20085;-67
2023/06/17 06:56:20;;;;;;;978.70;882.50;;;;;;;;;;4984644;28;20134;-66
2023/06/17 06:58:47;;;;;;;970.30;877.47;;;;;;;;;;4973758;28;20046;-63
2023/06/17 07:01:13;;;;;;;973.85;880.53;;;;;;;;;;4970866;28;20053;-64
2023/06/17 07:03:41;;;;;;;958.60;865.53;;;;;;;;;;4986996;28;20407;-72
2023/06/17 07:06:08;;;;;;;962.40;870.42;;;;;;;;;;4994724;28;20054;-65
2023/06/17 07:08:34;;;;;;;957.83;867.80;;;;;;;;;;5003050;28;20492;-67
2023/06/17 07:11:01;;;;;;;958.30;867.33;;;;;;;;;;5004545;28;20458;-64
2023/06/17 07:13:28;;;;;;;964.25;874.30;;;;;;;;;;4989152;28;20081;-63
2023/06/17 07:15:55;;;;;;;970.88;876.30;;;;;;;;;;5006545;28;20108;-63
2023/06/17 07:18:22;;;;;;;957.53;866.67;;;;;;;;;;5003202;28;20070;-65
2023/06/17 07:20:49;;;;;;;962.90;872.58;;;;;;;;;;4990661;28;20050;-64
2023/06/17 07:23:17;;;;;;;967.22;876.00;;;;;;;;;;4988353;28;20046;-64
2023/06/17 07:25:44;;;;;;;981.22;889.20;;;;;;;;;;5002376;28;20056;-66
2023/06/17 07:28:11;;;;;;;994.58;901.90;;;;;;;;;;5006952;28;20137;-64
2023/06/17 07:30:39;;;;;;;989.90;897.35;;;;;;;;;;5005865;28;20081;-66
2023/06/17 07:33:06;;;;;;;1004.47;912.60;;;;;;;;;;4988946;28;20045;-64
2023/06/17 07:35:33;;;;;;;1009.83;917.08;;;;;;;;;;5001978;28;20054;-64
2023/06/17 07:38:00;;;;;;;1006.95;914.28;;;;;;;;;;5004108;28;20416;-63
2023/06/17 07:40:28;;;;;;;1004.20;910.92;;;;;;;;;;5002311;28;20045;-66
2023/06/17 07:42:55;;;;;;;997.00;902.50;;;;;;;;;;5002807;28;20120;-63
2023/06/17 07:45:21;;;;;;;987.53;895.20;;;;;;;;;;5007807;28;20071;-65
2023/06/17 07:47:48;;;;;;;982.55;891.30;;;;;;;;;;5000222;28;20050;-64
2023/06/17 07:50:15;;;;;;;976.20;884.20;;;;;;;;;;5002087;28;20073;-63
2023/06/17 07:52:41;;;;;;;988.72;896.22;;;;;;;;;;5003148;28;20467;-65
2023/06/17 07:55:08;;;;;;;986.97;894.53;;;;;;;;;;5002253;28;20060;-64
2023/06/17 07:57:35;;;;;;;985.35;894.78;;;;;;;;;;5002743;28;20046;-64
2023/06/17 08:00:09;;;;;;;984.75;893.60;;;;;;;;;;5005054;28;20106;-64
2023/06/17 08:02:38;;;;;;;984.97;892.95;;;;;;;;;;5004004;28;20043;-64
2023/06/17 08:05:05;;;;;;;983.13;892.00;;;;;;;;;;4990878;28;20050;-66
2023/06/17 08:07:32;;;;;;;994.38;902.17;;;;;;;;;;5001018;28;20133;-64
2023/06/17 08:09:59;;;;;;;999.45;902.95;;;;;;;;;;5001208;28;20053;-65
2023/06/17 08:12:25;;;;;;;996.80;903.80;;;;;;;;;;5002232;28;20416;-66
2023/06/17 08:14:52;;;;;;;994.22;903.00;;;;;;;;;;5002566;28;20534;-63
2023/06/17 08:17:19;;;;;;;1002.70;909.22;;;;;;;;;;5009793;28;20065;-64
2023/06/17 08:19:46;;;;;;;1007.50;914.10;;;;;;;;;;5001366;28;20037;-64
2023/06/17 08:22:12;;;;;;;999.00;906.03;;;;;;;;;;5003496;28;20053;-66
2023/06/17 08:24:39;;;;;;;1020.80;927.08;;;;;;;;;;4984820;28;20078;-63
2023/06/17 08:27:06;;;;;;;1018.20;924.97;;;;;;;;;;5002843;28;20049;-64
2023/06/17 08:29:33;;;;;;;1032.63;937.20;;;;;;;;;;5005011;28;20042;-65
2023/06/17 08:31:59;;;;;;;1032.72;938.03;;;;;;;;;;4991410;28;20080;-63
2023/06/17 08:34:30;;;;;;;1039.75;943.35;;;;;;;;;;5004801;28;20045;-65
2023/06/17 08:37:03;;;;;;;1041.90;943.25;;;;;;;;;;4977012;28;20064;-64
2023/06/17 08:39:31;;;;;;;1041.65;946.63;;;;;;;;;;5000606;28;20408;-63
2023/06/17 08:41:57;;;;;;;1053.97;958.95;;;;;;;;;;4993404;28;20049;-67
2023/06/17 08:44:26;;;;;;;1047.10;950.70;;;;;;;;;;5002024;28;20074;-64
2023/06/17 08:46:53;;;;;;;1043.88;947.85;;;;;;;;;;4992574;28;20053;-63
2023/06/17 08:49:21;;;;;;;1042.97;947.67;;;;;;;;;;5001381;28;20045;-64
2023/06/17 08:51:50;;;;;;;1039.55;942.70;;;;;;;;;;4999642;28;20050;-62
2023/06/17 08:54:19;;;;;;;1035.95;942.60;;;;;;;;;;5002315;28;20043;-66
2023/06/17 08:56:46;;;;;;;1038.75;943.30;;;;;;;;;;4984137;28;20054;-64
2023/06/17 08:59:12;;;;;;;1035.75;943.20;;;;;;;;;;4984638;28;20042;-65
2023/06/17 09:01:40;;;;;;;1032.40;937.13;;;;;;;;;;5003636;28;20045;-64
2023/06/17 09:04:06;;;;;;;1030.25;935.80;;;;;;;;;;5005559;28;20046;-63
2023/06/17 09:06:33;;;;;;;1023.70;930.83;;;;;;;;;;5001799;28;20089;-64
2023/06/17 09:09:00;;;;;;;1025.63;932.90;;;;;;;;;;4985904;28;20100;-64
2023/06/17 09:11:31;;;;;;;1026.22;933.13;;;;;;;;;;4998001;28;20049;-66
2023/06/17 09:13:59;;;;;;;1018.42;924.35;;;;;;;;;;4993452;28;20045;-63
2023/06/17 09:16:26;;;;;;;1022.53;928.72;;;;;;;;;;5003394;28;20035;-67
2023/06/17 09:18:57;;;;;;;1037.63;939.83;;;;;;;;;;5005235;28;20046;-64
2023/06/17 09:21:24;;;;;;;1028.38;936.70;;;;;;;;;;5002877;28;20037;-65
2023/06/17 09:23:55;;;;;;;1035.65;941.05;;;;;;;;;;5000036;28;20045;-64
2023/06/17 09:26:31;;;;;;;1031.25;935.97;;;;;;;;;;5004657;28;20044;-63
2023/06/17 09:29:02;;;;;;;1025.45;933.13;;;;;;;;;;5001960;28;20180;-63
2023/06/17 09:31:31;;;;;;;1033.88;940.00;;;;;;;;;;5003439;28;20089;-64
2023/06/17 09:34:02;;;;;;;1041.95;945.85;;;;;;;;;;4986572;28;20065;-71
2023/06/17 09:36:29;;;;;;;1044.30;949.00;;;;;;;;;;5002568;28;20408;-63
2023/06/17 09:38:56;;;;;;;1035.07;941.88;;;;;;;;;;5005160;28;20041;-63
2023/06/17 09:41:23;;;;;;;1032.97;939.10;;;;;;;;;;4992597;28;20050;-64
2023/06/17 09:43:54;;;;;;;1041.18;945.78;;;;;;;;;;4991482;28;20038;-64
2023/06/17 09:46:29;;;;;;;1040.93;946.88;;;;;;;;;;4992711;28;20514;-64
2023/06/17 09:48:59;;;;;;;1044.95;948.00;;;;;;;;;;5003765;28;20046;-63
2023/06/17 09:51:36;;;;;;;1043.95;948.47;;;;;;;;;;4990593;28;20050;-64
2023/06/17 09:54:04;;;;;;;1040.00;945.38;;;;;;;;;;4998573;28;20137;-64
2023/06/17 09:56:31;;;;;;;1047.72;953.78;;;;;;;;;;4985286;28;20043;-64
2023/06/17 09:58:59;;;;;;;1047.35;950.65;;;;;;;;;;4982586;28;20141;-64
2023/06/17 10:01:30;;;;;;;1050.03;954.90;;;;;;;;;;4992101;28;20046;-63
2023/06/17 10:04:00;;;;;;;1067.65;967.63;;;;;;;;;;5007478;28;20082;-66
2023/06/17 10:06:32;;;;;;;1058.43;961.72;;;;;;;;;;5002224;28;20644;-64
2023/06/17 10:09:00;;;;;;;1061.28;964.95;;;;;;;;;;4989141;28;20100;-64
2023/06/17 10:11:27;;;;;;;1063.32;967.58;;;;;;;;;;4995913;28;20435;-66
2023/06/17 10:14:03;;;;;;;1075.10;975.97;;;;;;;;;;5004168;28;20125;-64
2023/06/17 10:16:33;;;;;;;1069.85;974.22;;;;;;;;;;5005596;28;20042;-65
2023/06/17 10:19:03;;;;;;;1080.88;981.40;;;;;;;;;;5008145;28;20054;-67
2023/06/17 10:21:30;;;;;;;1069.20;974.97;;;;;;;;;;5003954;28;20457;-67
2023/06/17 10:23:58;;;;;;;1073.82;978.65;;;;;;;;;;4995760;28;20109;-70
2023/06/17 10:26:28;;;;;;;1068.72;974.35;;;;;;;;;;4996168;28;20052;-65
2023/06/17 10:28:55;;;;;;;1073.68;976.58;;;;;;;;;;5007676;28;20095;-66
2023/06/17 10:31:22;;;;;;;1068.90;972.33;;;;;;;;;;5004633;28;20038;-70
2023/06/17 10:33:52;;;;;;;1078.10;978.72;;;;;;;;;;5008352;28;20057;-73
2023/06/17 10:36:20;;;;;;;1072.45;976.08;;;;;;;;;;4994633;28;20060;-73
2023/06/17 10:38:54;;;;;;;1067.07;972.13;;;;;;;;;;4988194;28;20137;-73
2023/06/17 10:41:21;;;;;;;1075.28;980.88;;;;;;;;;;5005991;28;20046;-57
2023/06/17 10:43:49;;;;;;;1069.80;974.45;;;;;;;;;;5005403;28;20053;-65
2023/06/17 10:46:22;;;;;;;1074.63;978.45;;;;;;;;;;4987600;28;20066;-65
2023/06/17 10:48:49;;;;;;;1081.50;982.42;;;;;;;;;;5007860;28;20049;-65
2023/06/17 10:51:17;;;;;;;1075.40;980.20;;;;;;;;;;5005596;28;20109;-63
2023/06/17 10:53:49;;;;;;;1082.65;986.20;;;;;;;;;;5007741;28;20077;-65
2023/06/17 10:56:15;;;;;;;1062.25;968.55;;;;;;;;;;5006169;28;20523;-63
2023/06/17 10:58:46;;;;;;;1065.05;969.33;;;;;;;;;;5007229;28;20642;-63
2023/06/17 11:01:13;;;;;;;1049.75;954.90;;;;;;;;;;5005485;28;20526;-63
2023/06/17 11:03:40;;;;;;;1042.18;948.88;;;;;;;;;;5003030;28;20054;-65
2023/06/17 11:06:07;;;;;;;1037.07;942.65;;;;;;;;;;5007263;28;20073;-75
2023/06/17 11:08:35;;;;;;;1015.63;919.75;;;;;;;;;;5001715;28;20045;-62
2023/06/17 11:11:05;;;;;;;1012.80;920.33;;;;;;;;;;5005035;28;20038;-63
2023/06/17 11:13:32;;;;;;;1003.85;912.08;;;;;;;;;;5007778;28;20048;-78
2023/06/17 11:15:58;;;;;;;1013.10;917.47;;;;;;;;;;5005360;28;20096;-66
2023/06/17 11:18:25;;;;;;;990.30;899.20;;;;;;;;;;5008042;28;20069;-64
2023/06/17 11:20:52;;;;;;;986.70;897.22;;;;;;;;;;5006195;28;20050;-66
2023/06/17 11:23:20;;;;;;;991.67;902.20;;;;;;;;;;4986575;28;20102;-66
2023/06/17 11:25:50;;;;;;;978.05;890.08;;;;;;;;;;5002929;28;20046;-63
2023/06/17 11:28:19;;;;;;;924.63;851.30;;;;;;;;;;4975272;28;20117;-67
2023/06/17 11:30:46;;;;;;;883.42;812.00;;;;;;;;;;5003444;28;20045;-73
2023/06/17 11:33:13;;;;;;;724.95;667.58;;;;;;;;;;5007552;28;20037;-78
2023/06/17 11:35:42;;;;;;;728.72;670.83;;;;;;;;;;5000619;28;20046;-75
2023/06/17 11:38:09;;;;;;;617.38;568.53;;;;;;;;;;5010539;28;20029;-79
2023/06/17 11:40:39;;;;;;;586.03;540.67;;;;;;;;;;5009934;28;20050;-69
2023/06/17 11:43:06;;;;;;;564.80;519.65;;;;;;;;;;4999492;28;20058;-72
2023/06/17 11:45:33;;;;;;;455.08;422.17;;;;;;;;;;5011919;28;20455;-73
2023/06/17 11:48:06;;;;;;;433.30;402.05;;;;;;;;;;5008167;28;20129;-77
2023/06/17 11:50:35;;;;;;;458.10;424.73;;;;;;;;;;5007478;28;20050;-80
2023/06/17 11:53:02;;;;;;;484.58;448.48;;;;;;;;;;5007643;28;20073;-74
2023/06/17 11:55:30;;;;;;;538.92;498.63;;;;;;;;;;5014479;28;20042;-75
2023/06/17 11:57:57;;;;;;;854.40;784.35;;;;;;;;;;5002853;28;20038;-77
2023/06/17 12:00:24;;;;;;;928.08;854.92;;;;;;;;;;5007840;28;20050;-72
2023/06/17 12:02:54;;;;;;;926.90;852.97;;;;;;;;;;5009734;28;20058;-74
2023/06/17 12:05:20;;;;;;;957.38;880.30;;;;;;;;;;5014995;28;20038;-75
2023/06/17 12:07:47;;;;;;;975.28;895.75;;;;;;;;;;5014974;28;20137;-74
2023/06/17 12:10:14;;;;;;;971.75;893.03;;;;;;;;;;5014202;28;20158;-65
2023/06/17 12:12:42;;;;;;;975.50;895.42;;;;;;;;;;4997937;28;20069;-62
2023/06/17 12:15:09;;;;;;;979.72;899.95;;;;;;;;;;5007728;28;20045;-62
2023/06/17 12:17:57;;;;;;;990.50;908.85;;;;;;;;;;5007518;28;20069;-64
2023/06/17 12:20:23;;;;;;;979.45;901.15;;;;;;;;;;5013818;28;20471;-72
2023/06/17 12:22:51;;;;;;;965.03;886.20;;;;;;;;;;5007761;28;20042;-73
2023/06/17 12:25:18;;;;;;;962.58;882.60;;;;;;;;;;5014077;28;20069;-74
2023/06/17 12:27:45;;;;;;;939.17;864.05;;;;;;;;;;5009174;28;20054;-70
2023/06/17 12:30:12;;;;;;;926.60;852.80;;;;;;;;;;5011054;28;20057;-73
2023/06/17 12:32:39;;;;;;;917.00;842.35;;;;;;;;;;5007569;28;20042;-74
2023/06/17 12:35:08;;;;;;;876.88;807.10;;;;;;;;;;5010645;28;20098;-67
2023/06/17 12:37:36;;;;;;;858.75;791.63;;;;;;;;;;5009129;28;20575;-68
2023/06/17 12:40:06;;;;;;;868.53;796.95;;;;;;;;;;5007755;28;20066;-65
2023/06/17 12:42:33;;;;;;;834.65;768.40;;;;;;;;;;5008731;28;20120;-66
2023/06/17 12:45:00;;;;;;;835.53;767.97;;;;;;;;;;5004881;28;20050;-66
2023/06/17 12:47:27;;;;;;;839.92;772.35;;;;;;;;;;5010021;28;20065;-73
2023/06/17 12:49:54;;;;;;;867.20;797.40;;;;;;;;;;5006323;28;20045;-67
2023/06/17 12:52:20;;;;;;;857.50;789.72;;;;;;;;;;5010162;28;20069;-72
2023/06/17 12:54:56;;;;;;;835.00;765.63;;;;;;;;;;5007329;28;20054;-71
2023/06/17 12:57:22;;;;;;;823.15;757.95;;;;;;;;;;5006012;28;20105;-73
2023/06/17 12:59:49;;;;;;;848.05;780.70;;;;;;;;;;5007719;28;20105;-72
2023/06/17 13:02:16;;;;;;;839.88;772.90;;;;;;;;;;5004346;28;20046;-73
2023/06/17 13:04:42;;;;;;;833.13;767.80;;;;;;;;;;5007087;28;20049;-73
2023/06/17 13:07:10;;;;;;;859.53;789.55;;;;;;;;;;5005381;28;20053;-73
2023/06/17 13:09:36;;;;;;;827.47;762.83;;;;;;;;;;5006949;28;20742;-71
2023/06/17 13:12:04;;;;;;;825.33;759.53;;;;;;;;;;5006619;28;20046;-72
2023/06/17 13:14:30;;;;;;;832.90;766.60;;;;;;;;;;5002698;28;20060;-70
2023/06/17 13:16:57;;;;;;;825.03;758.83;;;;;;;;;;5004844;28;20061;-72
2023/06/17 13:19:24;;;;;;;808.10;744.22;;;;;;;;;;5002425;28;20081;-77
2023/06/17 13:21:52;;;;;;;812.38;746.70;;;;;;;;;;5003866;28;20056;-72
2023/06/17 13:24:20;;;;;;;809.03;744.80;;;;;;;;;;5006701;28;20133;-72
2023/06/17 13:26:46;;;;;;;803.15;738.50;;;;;;;;;;5004322;28;20038;-66
2023/06/17 13:29:13;;;;;;;826.53;759.72;;;;;;;;;;5000658;28;20037;-66
2023/06/17 13:31:40;;;;;;;818.05;752.80;;;;;;;;;;4985823;28;20479;-72
2023/06/17 13:34:07;;;;;;;821.17;753.67;;;;;;;;;;5002883;28;20058;-70
2023/06/17 13:36:35;;;;;;;816.65;751.80;;;;;;;;;;5000999;28;20050;-70
2023/06/17 13:39:03;;;;;;;808.03;743.75;;;;;;;;;;5003901;28;20052;-73
2023/06/17 13:41:30;;;;;;;797.03;733.88;;;;;;;;;;5001841;28;20122;-74
2023/06/17 13:43:57;;;;;;;804.03;737.72;;;;;;;;;;4989284;28;20049;-75
2023/06/17 13:46:24;;;;;;;791.88;728.88;;;;;;;;;;5001601;28;20045;-74
2023/06/17 13:48:52;;;;;;;702.63;645.20;;;;;;;;;;5001628;28;20056;-69
2023/06/17 13:51:19;;;;;;;48.85;9.85;;;;;;;;;;5008241;28;20045;-71
2023/06/17 13:53:46;;;;;;;51.60;17.13;;;;;;;;;;5000642;28;20122;-76
2023/06/17 13:56:13;;;;;;;53.03;20.20;;;;;;;;;;4991445;28;20054;-72